createdAt,value
2022-11-23T00:01:37.335Z,29.83
2022-11-23T00:04:13.382Z,25.50
2022-11-23T00:06:41.501Z,30.03
2022-11-23T00:09:10.756Z,29.87
2022-11-23T00:11:37.873Z,26.10
2022-11-23T00:14:05.198Z,24.67
2022-11-23T00:16:32.404Z,28.13
2022-11-23T00:19:01.943Z,25.57
2022-11-23T00:21:32.845Z,28.67
2022-11-23T00:24:00.500Z,25.77
2022-11-23T00:26:28.144Z,33.93
2022-11-23T00:28:55.210Z,30.53
2022-11-23T00:31:22.753Z,30.57
2022-11-23T00:33:53.584Z,30.57
2022-11-23T00:36:22.792Z,27.97
2022-11-23T00:38:51.182Z,27.87
2022-11-23T00:41:24.070Z,27.43
2022-11-23T00:43:51.484Z,27.43
2022-11-23T00:46:28.095Z,32.70
2022-11-23T00:48:57.374Z,30.07
2022-11-23T00:51:29.545Z,30.30
2022-11-23T00:53:56.797Z,30.53
2022-11-23T00:56:23.941Z,30.97
2022-11-23T00:58:56.552Z,28.83
2022-11-23T01:01:29.220Z,31.30
2022-11-23T01:03:59.499Z,31.53
2022-11-23T01:06:33.929Z,27.23
2022-11-23T01:09:17.217Z,32.83
2022-11-23T01:11:45.280Z,27.03
2022-11-23T01:14:12.927Z,29.17
2022-11-23T01:16:42.065Z,31.73
2022-11-23T01:19:14.779Z,29.27
2022-11-23T01:21:42.505Z,26.47
2022-11-23T01:24:22.079Z,29.03
2022-11-23T01:26:54.661Z,21.50
2022-11-23T01:29:23.783Z,26.47
2022-11-23T01:31:51.024Z,26.70
2022-11-23T01:34:18.313Z,25.73
2022-11-23T01:36:45.624Z,26.60
2022-11-23T01:39:13.895Z,28.60
2022-11-23T01:41:44.501Z,24.23
2022-11-23T01:44:32.954Z,29.00
2022-11-23T01:47:07.909Z,24.40
2022-11-23T01:49:46.204Z,23.83
2022-11-23T01:52:26.039Z,24.90
2022-11-23T01:55:01.544Z,25.97
2022-11-23T01:57:41.022Z,24.40
2022-11-23T02:00:09.278Z,25.07
2022-11-23T02:02:38.759Z,26.93
2022-11-23T02:05:06.760Z,25.33
2022-11-23T02:07:35.188Z,24.27
2022-11-23T02:10:02.734Z,24.43
2022-11-23T02:12:29.705Z,22.80
2022-11-23T02:14:56.727Z,25.10
2022-11-23T02:17:23.736Z,25.83
2022-11-23T02:20:05.591Z,26.40
2022-11-23T02:22:54.534Z,25.07
2022-11-23T02:25:45.496Z,25.40
2022-11-23T02:28:22.934Z,24.13
2022-11-23T02:30:53.181Z,26.23
2022-11-23T02:33:20.236Z,23.10
2022-11-23T02:35:55.208Z,24.33
2022-11-23T02:38:25.437Z,22.40
2022-11-23T02:40:52.485Z,24.80
2022-11-23T02:43:19.822Z,27.33
2022-11-23T02:45:58.633Z,25.23
2022-11-23T02:48:26.432Z,24.97
2022-11-23T02:50:53.453Z,22.90
2022-11-23T02:53:20.519Z,25.57
2022-11-23T02:55:47.774Z,25.10
2022-11-23T02:58:14.853Z,27.40
2022-11-23T03:00:41.920Z,27.23
2022-11-23T03:03:08.941Z,24.50
2022-11-23T03:05:36.051Z,22.90
2022-11-23T03:08:03.147Z,25.30
2022-11-23T03:10:30.222Z,24.80
2022-11-23T03:12:57.560Z,27.87
2022-11-23T03:15:28.619Z,27.57
2022-11-23T03:17:58.188Z,25.07
2022-11-23T03:20:25.395Z,26.73
2022-11-23T03:22:52.473Z,25.93
2022-11-23T03:25:19.584Z,29.50
2022-11-23T03:27:47.357Z,26.93
2022-11-23T03:30:15.463Z,25.27
2022-11-23T03:32:42.435Z,28.53
2022-11-23T03:35:09.778Z,27.50
2022-11-23T03:37:36.769Z,26.33
2022-11-23T03:40:04.087Z,29.43
2022-11-23T03:42:31.048Z,25.53
2022-11-23T03:44:58.053Z,25.20
2022-11-23T03:47:25.032Z,26.03
2022-11-23T03:49:51.989Z,28.17
2022-11-23T03:52:18.992Z,25.90
2022-11-23T03:54:46.987Z,26.40
2022-11-23T03:57:14.300Z,27.17
2022-11-23T03:59:41.276Z,27.10
2022-11-23T04:02:08.305Z,27.10
2022-11-23T04:04:36.161Z,25.70
2022-11-23T04:07:03.423Z,26.67
2022-11-23T04:09:30.869Z,26.90
2022-11-23T04:11:58.102Z,27.20
2022-11-23T04:14:25.182Z,25.77
2022-11-23T04:16:52.295Z,27.23
2022-11-23T04:19:19.463Z,25.60
2022-11-23T04:21:46.545Z,27.17
2022-11-23T04:24:13.606Z,27.93
2022-11-23T04:26:41.141Z,29.80
2022-11-23T04:29:08.136Z,29.70
2022-11-23T04:31:35.188Z,29.77
2022-11-23T04:34:02.245Z,23.70
2022-11-23T04:36:29.780Z,26.40
2022-11-23T04:38:56.783Z,29.97
2022-11-23T04:41:24.906Z,25.77
2022-11-23T04:43:51.950Z,25.30
2022-11-23T04:46:19.104Z,29.00
2022-11-23T04:48:46.134Z,26.30
2022-11-23T04:51:14.168Z,31.03
2022-11-23T04:53:41.173Z,27.03
2022-11-23T04:56:08.873Z,28.53
2022-11-23T04:58:36.552Z,23.87
2022-11-23T05:01:05.668Z,30.67
2022-11-23T05:03:35.217Z,27.63
2022-11-23T05:06:03.920Z,28.10
2022-11-23T05:08:31.763Z,27.27
2022-11-23T05:10:59.021Z,29.63
2022-11-23T05:13:26.136Z,27.10
2022-11-23T05:15:53.089Z,24.80
2022-11-23T05:18:20.406Z,26.70
2022-11-23T05:20:47.950Z,29.77
2022-11-23T05:23:15.295Z,29.07
2022-11-23T05:25:42.361Z,27.10
2022-11-23T05:28:38.895Z,24.87
2022-11-23T05:31:05.803Z,27.80
2022-11-23T05:33:32.856Z,24.73
2022-11-23T05:35:59.998Z,28.63
2022-11-23T05:38:27.289Z,26.10
2022-11-23T05:40:54.266Z,25.83
2022-11-23T05:43:21.639Z,25.67
2022-11-23T05:45:48.901Z,23.97
2022-11-23T05:48:15.877Z,27.53
2022-11-23T05:50:42.839Z,22.47
2022-11-23T05:53:09.915Z,28.13
2022-11-23T05:55:36.928Z,28.23
2022-11-23T05:58:03.934Z,26.23
2022-11-23T06:00:31.025Z,26.90
2022-11-23T06:03:02.337Z,26.27
2022-11-23T06:05:30.498Z,26.47
2022-11-23T06:07:57.853Z,22.07
2022-11-23T06:10:24.978Z,25.73
2022-11-23T06:12:52.634Z,22.53
2022-11-23T06:15:20.047Z,25.10
2022-11-23T06:17:47.110Z,25.53
2022-11-23T06:20:14.369Z,20.67
2022-11-23T06:22:41.341Z,20.47
2022-11-23T06:25:09.164Z,21.00
2022-11-23T06:27:36.213Z,23.37
2022-11-23T06:30:03.996Z,25.80
2022-11-23T06:32:30.943Z,23.67
2022-11-23T06:35:00.824Z,23.33
2022-11-23T06:37:28.358Z,20.73
2022-11-23T06:39:55.341Z,21.70
2022-11-23T06:42:39.875Z,24.53
2022-11-23T06:45:08.733Z,25.73
2022-11-23T06:47:35.974Z,21.23
2022-11-23T06:50:03.295Z,25.93
2022-11-23T06:52:30.395Z,22.87
2022-11-23T06:54:57.417Z,23.53
2022-11-23T06:57:24.649Z,23.17
2022-11-23T06:59:51.672Z,25.13
2022-11-23T07:02:18.779Z,21.20
2022-11-23T07:04:45.852Z,22.70
2022-11-23T07:07:13.089Z,23.30
2022-11-23T07:09:40.391Z,22.17
2022-11-23T07:12:07.959Z,23.37
2022-11-23T07:14:35.081Z,22.33
2022-11-23T07:17:02.235Z,20.07
2022-11-23T07:19:29.588Z,20.70
2022-11-23T07:21:56.777Z,22.60
2022-11-23T07:24:23.773Z,23.47
2022-11-23T07:26:51.161Z,21.13
2022-11-23T07:29:21.430Z,22.43
2022-11-23T07:31:48.536Z,22.27
2022-11-23T07:34:15.529Z,21.77
2022-11-23T07:36:42.626Z,22.27
2022-11-23T07:39:09.897Z,24.53
2022-11-23T07:41:36.875Z,20.00
2022-11-23T07:44:04.348Z,22.03
2022-11-23T07:46:31.341Z,19.00
2022-11-23T07:49:02.142Z,23.57
2022-11-23T07:51:29.885Z,22.10
2022-11-23T07:53:57.468Z,18.20
2022-11-23T07:56:24.880Z,18.47
2022-11-23T07:58:52.141Z,17.77
2022-11-23T08:01:20.114Z,19.07
2022-11-23T08:03:48.479Z,20.93
2022-11-23T08:06:16.781Z,18.17
2022-11-23T08:08:44.052Z,22.23
2022-11-23T08:11:14.642Z,19.93
2022-11-23T08:13:41.675Z,20.23
2022-11-23T08:16:08.799Z,23.60
2022-11-23T08:18:38.198Z,21.50
2022-11-23T08:21:05.763Z,21.07
2022-11-23T08:23:33.023Z,20.90
2022-11-23T08:26:02.456Z,21.90
2022-11-23T08:28:29.588Z,20.17
2022-11-23T08:30:56.573Z,18.07
2022-11-23T08:33:23.577Z,18.33
2022-11-23T08:35:50.519Z,15.97
2022-11-23T08:38:17.612Z,19.13
2022-11-23T08:40:44.780Z,19.63
2022-11-23T08:43:11.783Z,17.80
2022-11-23T08:45:39.032Z,17.03
2022-11-23T08:48:06.992Z,16.87
2022-11-23T08:50:35.219Z,19.50
2022-11-23T08:53:02.247Z,17.77
2022-11-23T08:55:29.997Z,17.43
2022-11-23T08:57:58.502Z,16.83
2022-11-23T09:00:26.744Z,16.00
2022-11-23T09:02:53.869Z,16.87
2022-11-23T09:05:21.844Z,19.17
2022-11-23T09:07:49.015Z,16.53
2022-11-23T09:10:18.718Z,16.10
2022-11-23T09:12:48.258Z,20.07
2022-11-23T09:15:15.668Z,16.97
2022-11-23T09:17:42.983Z,16.73
2022-11-23T09:20:11.502Z,25.80
2022-11-23T09:22:39.261Z,19.57
2022-11-23T09:25:07.273Z,21.50
2022-11-23T09:27:34.422Z,18.33
2022-11-23T09:30:01.636Z,16.67
2022-11-23T09:32:29.148Z,19.03
2022-11-23T09:34:56.116Z,17.80
2022-11-23T09:37:23.208Z,23.00
2022-11-23T09:39:50.190Z,17.87
2022-11-23T09:42:47.292Z,17.60
2022-11-23T09:45:50.683Z,17.97
2022-11-23T09:49:14.827Z,18.83
2022-11-23T09:51:43.096Z,18.80
2022-11-23T09:54:37.512Z,17.93
2022-11-23T09:57:05.652Z,19.00
2022-11-23T09:59:53.259Z,17.97
2022-11-23T10:02:24.980Z,17.73
2022-11-23T10:04:53.588Z,17.87
2022-11-23T10:08:06.477Z,17.87
2022-11-23T10:10:46.659Z,17.63
2022-11-23T10:13:53.725Z,18.50
2022-11-23T10:17:14.768Z,18.53
2022-11-23T10:20:18.287Z,19.13
2022-11-23T10:23:01.868Z,19.93
2022-11-23T10:25:47.296Z,17.63
2022-11-23T10:28:19.858Z,18.60
2022-11-23T10:31:17.822Z,17.97
2022-11-23T10:34:23.668Z,19.10
2022-11-23T10:36:50.804Z,18.77
2022-11-23T10:39:25.948Z,17.67
2022-11-23T10:42:03.120Z,18.73
2022-11-23T10:44:38.060Z,17.60
2022-11-23T10:47:05.645Z,17.43
2022-11-23T10:49:35.488Z,17.97
2022-11-23T10:52:33.433Z,23.10
2022-11-23T10:55:06.142Z,24.13
2022-11-23T10:57:42.694Z,20.00
2022-11-23T11:00:15.402Z,18.23
2022-11-23T11:02:54.310Z,16.97
2022-11-23T11:08:36.871Z,16.77
2022-11-23T11:11:21.093Z,15.57
2022-11-23T11:13:49.490Z,16.67
2022-11-23T11:16:35.549Z,23.97
2022-11-23T11:19:36.420Z,19.73
2022-11-23T11:22:33.379Z,16.00
2022-11-23T11:25:02.344Z,16.50
2022-11-23T11:27:31.946Z,16.20
2022-11-23T11:30:20.525Z,16.17
2022-11-23T11:33:26.260Z,18.30
2022-11-23T11:35:56.521Z,15.07
2022-11-23T11:38:35.725Z,17.10
2022-11-23T11:41:15.584Z,15.97
2022-11-23T11:43:53.558Z,16.60
2022-11-23T11:46:29.641Z,16.27
2022-11-23T11:49:21.624Z,15.33
2022-11-23T11:52:19.017Z,15.80
2022-11-23T11:55:15.297Z,14.50
2022-11-23T11:57:50.075Z,14.53
2022-11-23T12:00:20.657Z,14.37
2022-11-23T12:03:42.922Z,15.37
2022-11-23T12:06:36.021Z,14.87
2022-11-23T12:09:20.209Z,15.17
2022-11-23T12:11:47.357Z,16.40
2022-11-23T12:14:15.626Z,21.17
2022-11-23T12:17:32.344Z,15.13
2022-11-23T12:20:22.634Z,18.43
2022-11-23T12:23:19.497Z,97.27
2022-11-23T12:26:29.969Z,42.67
2022-11-23T12:29:31.694Z,30.93
2022-11-23T12:32:51.807Z,16.70
2022-11-23T12:36:07.236Z,15.90
2022-11-23T12:39:09.985Z,15.27
2022-11-23T12:42:15.096Z,14.93
2022-11-23T12:44:59.647Z,14.10
2022-11-23T12:48:15.439Z,15.33
2022-11-23T12:51:23.573Z,14.50
2022-11-23T12:54:17.413Z,14.17
2022-11-23T12:57:02.268Z,13.57
2022-11-23T12:59:57.957Z,15.07
2022-11-23T13:02:57.292Z,13.50
2022-11-23T13:06:02.143Z,14.37
2022-11-23T13:09:07.443Z,15.07
2022-11-23T13:12:17.523Z,14.50
2022-11-23T13:15:23.156Z,13.23
2022-11-23T13:18:23.143Z,13.20
2022-11-23T13:21:30.361Z,11.73
2022-11-23T13:23:57.430Z,13.33
2022-11-23T13:26:33.964Z,12.43
2022-11-23T13:29:51.722Z,13.77
2022-11-23T13:32:42.311Z,15.10
2022-11-23T13:35:21.035Z,14.90
2022-11-23T13:37:56.697Z,13.50
2022-11-23T13:40:35.796Z,13.87
2022-11-23T13:43:32.624Z,17.33
2022-11-23T13:46:28.755Z,15.50
2022-11-23T13:49:00.582Z,16.27
2022-11-23T13:51:35.891Z,15.97
2022-11-23T13:54:21.852Z,15.70
2022-11-23T13:57:02.161Z,18.80
2022-11-23T13:59:34.879Z,17.20
2022-11-23T14:02:07.959Z,16.83
2022-11-23T14:05:11.634Z,16.20
2022-11-23T14:07:46.456Z,18.73
2022-11-23T14:10:24.388Z,19.67
2022-11-23T14:13:05.623Z,20.03
2022-11-23T14:15:38.292Z,18.43
2022-11-23T14:18:58.780Z,19.70
2022-11-23T14:21:39.259Z,20.47
2022-11-23T14:25:08.852Z,23.17
2022-11-23T14:28:32.047Z,21.27
2022-11-23T14:31:46.398Z,20.70
2022-11-23T14:34:41.307Z,25.13
2022-11-23T14:38:00.289Z,24.33
2022-11-23T14:41:19.337Z,25.00
2022-11-23T14:43:47.541Z,24.37
2022-11-23T14:46:24.653Z,23.63
2022-11-23T14:49:02.805Z,26.10
2022-11-23T14:51:30.002Z,27.20
2022-11-23T14:54:08.081Z,25.40
2022-11-23T14:56:47.459Z,25.60
2022-11-23T14:59:17.441Z,22.90
2022-11-23T15:02:11.672Z,23.73
2022-11-23T15:05:07.421Z,28.80
2022-11-23T15:08:21.819Z,24.37
2022-11-23T15:11:22.072Z,24.93
2022-11-23T15:13:55.430Z,29.93
2022-11-23T15:16:22.676Z,30.43
2022-11-23T15:18:49.777Z,31.57
2022-11-23T15:21:27.968Z,24.73
2022-11-23T15:23:58.200Z,31.27
2022-11-23T15:26:48.090Z,28.27
2022-11-23T15:29:39.113Z,27.67
2022-11-23T15:32:34.693Z,29.90
2022-11-23T15:35:12.919Z,28.17
2022-11-23T15:37:48.855Z,30.00
2022-11-23T15:40:19.333Z,28.43
2022-11-23T15:42:51.126Z,30.00
2022-11-23T15:45:45.660Z,32.03
2022-11-23T15:48:23.130Z,31.40
2022-11-23T15:51:04.634Z,31.17
2022-11-23T15:53:51.872Z,29.60
2022-11-23T15:56:36.137Z,32.30
2022-11-23T15:59:33.590Z,30.33
2022-11-23T16:02:04.822Z,29.00
2022-11-23T16:04:41.346Z,31.20
2022-11-23T16:07:25.697Z,29.50
2022-11-23T16:10:22.945Z,29.30
2022-11-23T16:12:57.145Z,28.00
2022-11-23T16:15:44.124Z,25.30
2022-11-23T16:18:31.779Z,30.40
2022-11-23T16:21:04.892Z,24.57
2022-11-23T16:24:04.905Z,26.70
2022-11-23T16:26:33.772Z,26.70
2022-11-23T16:29:02.074Z,26.13
2022-11-23T16:31:37.013Z,30.03
2022-11-23T16:34:16.492Z,30.47
2022-11-23T16:36:43.483Z,28.80
2022-11-23T16:39:11.190Z,30.97
2022-11-23T16:41:38.461Z,30.90
2022-11-23T16:44:05.671Z,28.93
2022-11-23T16:46:33.029Z,29.40
2022-11-23T16:49:00.669Z,29.30
2022-11-23T16:51:30.471Z,31.67
2022-11-23T16:54:15.284Z,29.00
2022-11-23T16:56:45.187Z,31.40
2022-11-23T16:59:22.704Z,30.53
2022-11-23T17:01:56.623Z,32.57
2022-11-23T17:04:25.361Z,31.33
2022-11-23T17:06:52.404Z,33.87
2022-11-23T17:09:19.531Z,33.27
2022-11-23T17:11:50.227Z,31.00
2022-11-23T17:14:19.149Z,30.03
2022-11-23T17:16:57.389Z,30.27
2022-11-23T17:19:24.443Z,26.60
2022-11-23T17:21:51.622Z,26.83
2022-11-23T17:24:18.906Z,32.70
2022-11-23T17:26:52.632Z,35.47
2022-11-23T17:29:21.239Z,37.30
2022-11-23T17:31:50.559Z,33.63
2022-11-23T17:34:18.003Z,28.97
2022-11-23T17:36:49.281Z,34.53
2022-11-23T17:39:23.550Z,28.97
2022-11-23T17:41:51.135Z,36.27
2022-11-23T17:44:18.267Z,30.23
2022-11-23T17:46:47.045Z,37.47
2022-11-23T17:49:19.943Z,38.43
2022-11-23T17:51:47.081Z,35.13
2022-11-23T17:54:14.051Z,33.93
2022-11-23T17:56:41.085Z,33.90
2022-11-23T17:59:08.613Z,32.30
2022-11-23T18:01:35.744Z,31.03
2022-11-23T18:04:04.831Z,35.33
2022-11-23T18:06:32.026Z,32.57
2022-11-23T18:08:59.267Z,32.50
2022-11-23T18:11:28.383Z,37.40
2022-11-23T18:13:55.697Z,35.53
2022-11-23T18:16:23.810Z,36.67
2022-11-23T18:18:51.026Z,36.50
2022-11-23T18:21:18.941Z,34.47
2022-11-23T18:23:46.124Z,39.10
2022-11-23T18:26:25.874Z,44.57
2022-11-23T18:28:53.666Z,48.23
2022-11-23T18:31:21.146Z,39.10
2022-11-23T18:33:48.238Z,70.30
2022-11-23T18:36:15.882Z,49.40
2022-11-23T18:38:46.597Z,36.77
2022-11-23T18:41:16.398Z,41.47
2022-11-23T18:43:45.316Z,46.50
2022-11-23T18:46:19.132Z,57.80
2022-11-23T18:48:48.767Z,66.10
2022-11-23T18:51:17.269Z,46.73
2022-11-23T18:53:47.322Z,47.37
2022-11-23T18:56:14.387Z,51.00
2022-11-23T18:58:44.625Z,44.00
2022-11-23T19:01:21.919Z,39.23
2022-11-23T19:03:52.842Z,39.97
2022-11-23T19:06:22.737Z,33.83
2022-11-23T19:08:54.573Z,34.43
2022-11-23T19:11:25.970Z,32.77
2022-11-23T19:13:57.551Z,33.40
2022-11-23T19:16:29.985Z,35.63
2022-11-23T19:19:06.671Z,37.07
2022-11-23T19:21:36.028Z,39.13
2022-11-23T19:24:04.092Z,37.20
2022-11-23T19:26:31.606Z,42.93
2022-11-23T19:28:59.384Z,38.13
2022-11-23T19:31:30.284Z,34.60
2022-11-23T19:34:01.577Z,39.53
2022-11-23T19:36:31.147Z,33.37
2022-11-23T19:39:00.547Z,35.90
2022-11-23T19:41:30.654Z,32.57
2022-11-23T19:44:00.413Z,34.57
2022-11-23T19:46:30.299Z,32.33
2022-11-23T19:48:58.384Z,38.97
2022-11-23T19:51:26.879Z,27.30
2022-11-23T19:53:57.030Z,26.53
2022-11-23T19:56:28.734Z,31.47
2022-11-23T19:59:01.155Z,29.83
2022-11-23T20:01:32.089Z,32.00
2022-11-23T20:04:08.841Z,35.07
2022-11-23T20:06:38.649Z,30.17
2022-11-23T20:09:10.216Z,34.73
2022-11-23T20:11:40.354Z,33.77
2022-11-23T20:14:10.679Z,36.17
2022-11-23T20:16:38.634Z,39.00
2022-11-23T20:19:09.405Z,37.97
2022-11-23T20:21:37.885Z,30.20
2022-11-23T20:24:11.441Z,38.50
2022-11-23T20:26:39.152Z,38.77
2022-11-23T20:29:08.463Z,36.43
2022-11-23T20:31:37.121Z,33.73
2022-11-23T20:34:07.547Z,36.93
2022-11-23T20:36:38.021Z,34.80
2022-11-23T20:39:09.768Z,39.67
2022-11-23T20:41:38.472Z,42.53
2022-11-23T20:44:12.642Z,41.53
2022-11-23T20:49:27.896Z,43.07
2022-11-23T20:51:54.895Z,41.93
2022-11-23T20:54:21.923Z,42.70
2022-11-23T20:56:48.912Z,39.73
2022-11-23T20:59:16.061Z,38.93
2022-11-23T21:01:43.110Z,34.17
2022-11-23T21:04:10.263Z,35.47
2022-11-23T21:06:39.814Z,37.80
2022-11-23T21:09:09.250Z,42.33
2022-11-23T21:11:58.324Z,44.07
2022-11-23T21:14:27.992Z,36.70
2022-11-23T21:16:59.276Z,42.30
2022-11-23T21:19:42.009Z,36.67
2022-11-23T21:22:13.433Z,48.17
2022-11-23T21:24:40.882Z,44.80
2022-11-23T21:27:12.504Z,33.90
2022-11-23T21:29:39.533Z,47.80
2022-11-23T21:32:06.564Z,37.50
2022-11-23T21:34:33.891Z,42.83
2022-11-23T21:37:01.613Z,43.60
2022-11-23T21:39:31.544Z,51.03
2022-11-23T21:41:58.856Z,54.03
2022-11-23T21:44:26.368Z,39.80
2022-11-23T21:46:53.495Z,48.87
2022-11-23T21:49:20.593Z,42.90
2022-11-23T21:51:48.191Z,34.77
2022-11-23T21:54:15.700Z,35.67
2022-11-23T21:56:45.609Z,51.03
2022-11-23T21:59:13.333Z,40.43
2022-11-23T22:01:42.479Z,45.17
2022-11-23T22:04:16.159Z,37.10
2022-11-23T22:06:45.325Z,40.33
2022-11-23T22:09:13.774Z,36.40
2022-11-23T22:11:43.653Z,44.53
2022-11-23T22:14:15.208Z,37.30
2022-11-23T22:16:56.608Z,39.60
2022-11-23T22:19:27.389Z,40.13
2022-11-23T22:21:54.506Z,34.97
2022-11-23T22:24:22.586Z,41.10
2022-11-23T22:26:49.939Z,43.27
2022-11-23T22:29:17.225Z,45.73
2022-11-23T22:31:44.462Z,47.30
2022-11-23T22:34:13.807Z,41.63
2022-11-23T22:36:41.368Z,50.93
2022-11-23T22:39:09.532Z,48.83
2022-11-23T22:41:38.181Z,55.57
2022-11-23T22:44:09.808Z,52.70
2022-11-23T22:46:38.536Z,39.93
2022-11-23T22:49:06.020Z,54.40
2022-11-23T22:51:33.724Z,41.70
2022-11-23T22:54:01.953Z,50.90
2022-11-23T22:56:31.171Z,49.90
2022-11-23T22:58:58.969Z,44.47
2022-11-23T23:01:30.136Z,57.73
2022-11-23T23:04:01.422Z,54.10
2022-11-23T23:06:35.832Z,57.80
2022-11-23T23:09:07.188Z,50.67
2022-11-23T23:11:35.699Z,47.43
2022-11-23T23:14:03.551Z,53.87
2022-11-23T23:16:31.023Z,55.30
2022-11-23T23:18:59.666Z,64.80
2022-11-23T23:21:29.116Z,49.40
2022-11-23T23:24:00.937Z,51.30
2022-11-23T23:26:29.106Z,54.50
2022-11-23T23:28:59.763Z,59.03
2022-11-23T23:31:28.459Z,57.83
2022-11-23T23:33:55.770Z,57.17
2022-11-23T23:36:24.451Z,62.47
2022-11-23T23:38:52.121Z,63.33
2022-11-23T23:41:19.664Z,52.43
2022-11-23T23:43:48.294Z,53.50
2022-11-23T23:46:16.362Z,47.57
2022-11-23T23:48:44.061Z,55.80
2022-11-23T23:51:18.152Z,52.63
2022-11-23T23:53:46.640Z,65.43
2022-11-23T23:56:27.121Z,57.53
2022-11-23T23:58:59.044Z,55.37
